METAR AND TAF INFORMATION
METAR FOR PAPG
ADDS - METARS form results

(0556 UTC 27 November 2022)
Data provider http://aviationweather.gov/metar/data/
 
METAR text: PAPG 270552Z 00000KT 10SM FEW012 SCT021 M01/M01 A2985 RMK AO2
Conditions at: PAPG (PETERSBURG , AK, US) observed 0552 UTC 27 November 2022
Temperature: -1.0°C (30°F)
Dewpoint: -1.0°C (30°F) [RH = 100%]
Pressure (altimeter): 29.85 inches Hg (1010.9 mb)
Winds: calm
Visibility: 10 or more miles (16+ km)
Ceiling: at least 12,000 feet AGL
Clouds: few clouds at 1200 feet AGL
scattered clouds at 2100 feet AGL
Weather: no significant weather observed at this time

METAR text: PAPG 270516Z 22003KT 10SM BKN012 M01/M01 A2985 RMK AO2
Conditions at: PAPG (PETERSBURG , AK, US) observed 0516 UTC 27 November 2022
Temperature: -1.0°C (30°F)
Dewpoint: -1.0°C (30°F) [RH = 100%]
Pressure (altimeter): 29.85 inches Hg (1010.9 mb)
Winds: from the SW (220 degrees) at 3 MPH (3 knots; 1.5 m/s)
Visibility: 10 or more miles (16+ km)
Ceiling: 1200 feet AGL
Clouds: broken clouds at 1200 feet AGL
Weather: no significant weather observed at this time

Forecast for: PAPG (PETERSBURG , AK, US)
Text: PAPG 270528Z 2706/2806 24005KT P6SM SKC
Forecast period: 0600 UTC 27 November 2022 to 0600 UTC 28 November 2022
Forecast type: FROM: standard forecast or significant change
Winds: from the WSW (240 degrees) at 6 MPH (5 knots; 2.6 m/s)
Visibility: 6 or more miles (10+ km)
Clouds: clear skies
Weather: no significant weather forecast for this period

 AIRPORT MAP

 RUNWAY INFORMATION
Runway 04 Runway length 6000 ft Runway width 150 ft
Runway elevation 105 ft Runway displaced threshold 0 ft Runway heading 71
Runway 22 Runway length 6000 ft Runway width 150 ft
Runway elevation 101 ft Runway displaced threshold 0 ft Runway heading 251

 AIRPORT FREQUENCIES
Type AWOS Name AWOS 3 Frequency 125.8 MHZ
Type CNTR Name ANCHORAGE Frequency 118 MHZ
Type CTAF Name CTAF Frequency 122.5 MHZ
Type FSS Name SITKA RDO Frequency 122.35 MHZ

 AIRPORT NEAR NAVIGATION AIDS
Type NDB Name Fredericks Point Frequency 372 KHZ

-